Time;durP1;ratioP1;P1;durP2;ratioP2;P2;SDS_P1;SDS_P2;PMS_P1;PMS_P2;Temp;Humidity;BMP_temperature;BMP_pressure;BME280_temperature;BME280_humidity;BME280_pressure;Samples;Min_cycle;Max_cycle;Signal;HPM_P1;HPM_P2
2024/01/03 00:05:37;;;;;;;67.30;26.30;;;;;;;6.12;100.00;98536.23;682083;1264;138886;-80
2024/01/03 00:20:42;;;;;;;48.20;22.00;;;;;;;6.11;100.00;98506.98;681995;1264;139752;-82
2024/01/03 00:35:46;;;;;;;37.90;17.80;;;;;;;6.05;100.00;98475.14;681969;1261;139919;-82
2024/01/03 00:50:49;;;;;;;33.30;15.20;;;;;;;5.94;100.00;98465.30;681887;1263;139689;-82
2024/01/03 01:05:53;;;;;;;53.60;23.30;;;;;;;5.76;100.00;98447.58;682091;1264;138702;-82
2024/01/03 01:20:58;;;;;;;39.50;17.90;;;;;;;5.64;100.00;98434.33;681864;1263;139508;-81
2024/01/03 01:36:02;;;;;;;34.60;16.60;;;;;;;5.60;100.00;98419.98;681939;1261;139013;-82
2024/01/03 01:51:05;;;;;;;32.10;15.60;;;;;;;5.60;100.00;98400.39;681978;1262;139386;-81
2024/01/03 02:06:09;;;;;;;32.20;16.10;;;;;;;5.64;100.00;98370.84;681959;1265;139229;-81
2024/01/03 02:21:15;;;;;;;33.10;15.70;;;;;;;5.55;100.00;98335.08;681960;1260;139717;-81
2024/01/03 02:36:19;;;;;;;22.80;12.10;;;;;;;5.36;100.00;98314.84;681904;1261;140739;-82
2024/01/03 02:51:23;;;;;;;21.40;11.30;;;;;;;5.25;100.00;98304.77;681952;1260;139538;-83
2024/01/03 03:06:26;;;;;;;24.30;11.30;;;;;;;5.11;100.00;98283.44;682075;1263;138633;-82
2024/01/03 03:21:30;;;;;;;19.70;10.40;;;;;;;5.03;100.00;98259.52;681793;1263;139770;-82
2024/01/03 03:36:34;;;;;;;18.40;8.40;;;;;;;4.96;100.00;98239.06;682053;1262;139637;-82
2024/01/03 03:51:37;;;;;;;16.70;9.20;;;;;;;4.75;100.00;98219.77;681893;1264;138767;-83
2024/01/03 04:06:42;;;;;;;15.00;7.80;;;;;;;4.77;100.00;98214.56;682011;1263;138597;-82
2024/01/03 04:21:46;;;;;;;14.10;7.80;;;;;;;4.61;100.00;98191.17;681919;1262;140694;-81
2024/01/03 04:36:50;;;;;;;14.00;7.70;;;;;;;4.46;100.00;98187.29;681971;1261;138479;-81
2024/01/03 04:51:54;;;;;;;14.80;6.90;;;;;;;4.30;100.00;98177.73;681985;1261;139086;-82
2024/01/03 05:06:57;;;;;;;10.80;5.60;;;;;;;4.07;100.00;98167.20;681996;1262;139003;-81
2024/01/03 05:22:01;;;;;;;11.20;5.70;;;;;;;3.92;100.00;98155.84;682011;1265;138638;-81
2024/01/03 05:37:04;;;;;;;12.50;5.50;;;;;;;3.69;100.00;98142.27;682118;1264;138499;-81
2024/01/03 05:52:08;;;;;;;11.90;6.40;;;;;;;3.79;100.00;98142.66;681909;1263;139150;-80
2024/01/03 06:07:13;;;;;;;36.80;18.20;;;;;;;3.78;100.00;98136.07;682002;1265;138894;-82
2024/01/03 06:22:16;;;;;;;25.40;12.80;;;;;;;3.67;100.00;98123.41;681852;1265;138887;-81
2024/01/03 06:37:20;;;;;;;14.40;6.20;;;;;;;3.62;100.00;98119.02;682150;1262;139121;-81
2024/01/03 06:52:23;;;;;;;11.60;5.70;;;;;;;3.63;100.00;98107.53;681728;1268;139010;-81
2024/01/03 07:07:28;;;;;;;20.60;9.60;;;;;;;3.60;100.00;98105.71;682016;1276;138963;-80
2024/01/03 07:22:31;;;;;;;98.30;41.50;;;;;;;3.54;100.00;98102.49;681768;1262;139750;-82
2024/01/03 07:37:35;;;;;;;81.50;32.40;;;;;;;3.50;100.00;98089.77;681973;1263;139194;-81
2024/01/03 07:52:39;;;;;;;42.70;14.70;;;;;;;3.47;100.00;98075.29;681777;1262;139435;-80
2024/01/03 08:07:43;;;;;;;15.20;7.80;;;;;;;3.45;100.00;98075.82;682024;1262;138872;-81
2024/01/03 08:22:47;;;;;;;49.20;17.30;;;;;;;3.39;100.00;98072.09;681792;1263;139463;-82
2024/01/03 08:37:51;;;;;;;28.00;11.60;;;;;;;3.46;100.00;98075.46;681852;1263;139507;-81
2024/01/03 08:52:55;;;;;;;33.90;15.60;;;;;;;3.52;100.00;98075.92;681692;1262;139666;-81
2024/01/03 09:07:59;;;;;;;52.80;21.80;;;;;;;3.48;100.00;98074.41;681983;1262;139214;-80
2024/01/03 09:23:08;;;;;;;60.60;22.80;;;;;;;3.46;99.88;98071.59;681701;1262;140466;-81
2024/01/03 09:38:13;;;;;;;45.10;23.60;;;;;;;3.45;99.47;98068.25;681844;1260;139666;-81
2024/01/03 09:53:19;;;;;;;26.40;13.80;;;;;;;3.47;98.93;98067.57;681844;1264;140105;-82
2024/01/03 10:08:25;;;;;;;23.10;11.90;;;;;;;3.45;98.40;98068.30;682056;1265;138563;-81
2024/01/03 10:23:30;;;;;;;21.90;10.70;;;;;;;3.45;97.84;98060.45;681899;1262;139030;-81
2024/01/03 10:38:36;;;;;;;32.40;16.40;;;;;;;3.39;97.72;98065.86;681888;1262;139277;-82
2024/01/03 10:53:44;;;;;;;60.30;27.30;;;;;;;3.26;97.25;98065.02;681783;1265;139551;-81
2024/01/03 11:08:53;;;;;;;501.10;159.20;;;;;;;3.24;96.86;98065.84;681935;1264;140067;-81
2024/01/03 11:23:57;;;;;;;276.10;93.90;;;;;;;3.11;96.53;98061.34;681638;1262;139333;-81
2024/01/03 11:39:01;;;;;;;60.10;26.20;;;;;;;2.95;96.72;98051.75;681756;1263;139485;-83
2024/01/03 11:54:06;;;;;;;20.50;11.60;;;;;;;2.97;97.07;98037.95;681728;1265;139568;-81
2024/01/03 12:09:22;;;;;;;101.00;43.80;;;;;;;3.12;96.15;98042.11;681833;1265;139395;-83
2024/01/03 12:24:40;;;;;;;556.60;161.30;;;;;;;2.94;95.84;98038.63;681816;1265;139018;-81
2024/01/03 12:39:47;;;;;;;139.00;42.10;;;;;;;2.85;95.63;98038.60;681707;1261;139515;-84
2024/01/03 12:54:50;;;;;;;100.60;32.70;;;;;;;2.76;95.57;98044.84;681955;1265;139171;-84
2024/01/03 13:09:54;;;;;;;96.90;30.20;;;;;;;2.78;95.87;98048.13;681878;1265;138899;-82
2024/01/03 13:24:57;;;;;;;71.70;27.40;;;;;;;2.94;95.90;98049.64;681875;1264;140622;-84
2024/01/03 13:40:01;;;;;;;106.00;37.00;;;;;;;2.90;96.20;98064.51;681581;1265;139403;-83
2024/01/03 13:55:05;;;;;;;276.10;95.60;;;;;;;2.84;96.25;98060.67;681937;1265;139133;-85
2024/01/03 14:10:11;;;;;;;1143.60;611.10;;;;;;;2.69;95.64;98059.61;681825;1264;139949;-84
2024/01/03 14:25:17;;;;;;;117.10;44.20;;;;;;;2.72;95.00;98062.17;681911;1264;140056;-81
2024/01/03 14:40:28;;;;;;;93.40;35.40;;;;;;;2.76;94.95;98068.33;681822;1265;139060;-84
2024/01/03 14:55:33;;;;;;;128.80;49.60;;;;;;;2.74;95.23;98069.27;682121;1265;138742;-84
2024/01/03 15:10:38;;;;;;;115.80;39.60;;;;;;;2.70;95.35;98063.71;682021;1265;139572;-84
2024/01/03 15:25:42;;;;;;;113.70;40.10;;;;;;;2.55;95.35;98056.98;682121;1273;139328;-85
2024/01/03 15:40:48;;;;;;;165.70;45.80;;;;;;;2.52;95.64;98061.20;681918;1265;139002;-83
2024/01/03 15:55:52;;;;;;;100.90;32.20;;;;;;;2.66;95.27;98059.44;682022;1267;140311;-84
2024/01/03 16:10:55;;;;;;;170.20;51.60;;;;;;;2.70;95.24;98060.45;682039;1266;139444;-81
2024/01/03 16:26:01;;;;;;;202.10;57.10;;;;;;;2.72;95.42;98062.38;682163;1266;139698;-82
2024/01/03 16:41:06;;;;;;;210.30;61.20;;;;;;;2.82;95.62;98052.29;682108;1260;139197;-84
2024/01/03 16:56:10;;;;;;;73.30;23.70;;;;;;;3.01;95.84;98041.61;682454;1266;139020;-83
2024/01/03 17:11:22;;;;;;;82.00;30.20;;;;;;;2.92;95.49;98038.22;682314;1261;139205;-83
2024/01/03 17:26:29;;;;;;;57.60;26.50;;;;;;;2.88;95.89;98035.02;682009;1263;138773;-82
2024/01/03 17:41:35;;;;;;;124.70;45.90;;;;;;;2.91;95.63;98031.27;681813;1265;139331;-83
2024/01/03 17:56:40;;;;;;;36.50;15.90;;;;;;;2.81;95.97;98023.42;682084;1264;139553;-82
2024/01/03 18:11:44;;;;;;;35.60;14.90;;;;;;;2.88;96.17;98017.87;682210;1263;139020;-82
2024/01/03 18:26:48;;;;;;;39.00;17.80;;;;;;;2.83;96.13;98023.59;681910;1263;139006;-82
2024/01/03 18:41:53;;;;;;;41.10;17.80;;;;;;;2.84;96.38;98016.01;681907;1264;139652;-83
2024/01/03 18:56:57;;;;;;;65.20;27.20;;;;;;;2.83;96.55;98008.73;681877;1264;138697;-84
2024/01/03 19:12:02;;;;;;;34.50;15.40;;;;;;;2.72;96.95;97997.10;681987;1263;138866;-82
2024/01/03 19:27:07;;;;;;;113.00;34.80;;;;;;;2.87;97.10;98001.44;681693;1263;139212;-83
2024/01/03 19:42:11;;;;;;;36.50;16.10;;;;;;;2.84;96.67;97993.05;681867;1262;139986;-83
2024/01/03 19:57:17;;;;;;;33.00;16.30;;;;;;;2.91;96.79;97998.61;681836;1260;138645;-83
2024/01/03 20:12:21;;;;;;;35.40;17.20;;;;;;;2.99;96.54;97989.77;681984;1260;138685;-82
2024/01/03 20:27:25;;;;;;;42.60;18.60;;;;;;;2.96;96.64;97983.98;681731;1261;138904;-82
2024/01/03 20:42:28;;;;;;;124.10;35.10;;;;;;;3.09;97.01;97987.46;681973;1265;138896;-82
2024/01/03 20:57:34;;;;;;;29.10;14.00;;;;;;;3.21;96.38;97989.48;681873;1263;140217;-82
2024/01/03 21:12:38;;;;;;;23.00;11.70;;;;;;;3.05;96.30;97983.73;681894;1263;138562;-82
2024/01/03 21:27:41;;;;;;;27.90;12.40;;;;;;;2.99;96.55;97976.64;681467;1263;138970;-83
2024/01/03 21:42:53;;;;;;;21.80;11.20;;;;;;;3.18;96.55;97985.08;681928;1265;138997;-82
2024/01/03 21:57:58;;;;;;;40.90;16.50;;;;;;;2.99;96.69;97969.42;681892;1260;138885;-83
2024/01/03 22:13:04;;;;;;;23.60;12.60;;;;;;;2.89;97.25;97962.88;681924;1264;138906;-82
2024/01/03 22:28:09;;;;;;;31.00;15.20;;;;;;;3.14;97.38;97962.69;681718;1264;139672;-83
2024/01/03 22:43:12;;;;;;;35.60;16.90;;;;;;;3.24;96.77;97954.30;681952;1263;138538;-84
2024/01/03 22:58:16;;;;;;;43.80;17.00;;;;;;;3.19;96.91;97947.45;681732;1262;140409;-83
2024/01/03 23:13:19;;;;;;;46.70;18.40;;;;;;;3.18;97.29;97948.15;681923;1262;138573;-83
2024/01/03 23:28:24;;;;;;;45.90;19.60;;;;;;;3.30;97.06;97942.48;681553;1266;140002;-83
2024/01/03 23:43:28;;;;;;;37.20;16.70;;;;;;;3.37;97.06;97942.69;681829;1268;139178;-84
2024/01/03 23:58:32;;;;;;;36.60;15.70;;;;;;;3.44;96.99;97945.49;681800;1263;139426;-83
